sensor_id;sensor_type;location;lat;lon;timestamp;pressure;altitude;pressure_sealevel;temperature;humidity
7662;BME280;30314;48.184;11.510;2023-01-16T00:02:04;94880.81;;;0.33;100.00
7662;BME280;30314;48.184;11.510;2023-01-16T00:04:36;94905.03;;;0.39;100.00
7662;BME280;30314;48.184;11.510;2023-01-16T00:07:04;94866.06;;;0.44;99.61
7662;BME280;30314;48.184;11.510;2023-01-16T00:09:32;94835.91;;;0.10;97.95
7662;BME280;30314;48.184;11.510;2023-01-16T00:12:03;94885.69;;;0.62;97.27
7662;BME280;30314;48.184;11.510;2023-01-16T00:14:31;94945.19;;;0.91;97.94
7662;BME280;30314;48.184;11.510;2023-01-16T00:17:00;94921.38;;;0.67;98.15
7662;BME280;30314;48.184;11.510;2023-01-16T00:19:27;94837.03;;;0.20;97.70
7662;BME280;30314;48.184;11.510;2023-01-16T00:22:00;94867.84;;;0.38;98.69
7662;BME280;30314;48.184;11.510;2023-01-16T00:24:28;94865.75;;;0.35;100.00
7662;BME280;30314;48.184;11.510;2023-01-16T00:26:58;94818.72;;;0.04;100.00
7662;BME280;30314;48.184;11.510;2023-01-16T00:29:26;94861.06;;;0.37;98.21
7662;BME280;30314;48.184;11.510;2023-01-16T00:31:54;94865.06;;;0.50;96.44
7662;BME280;30314;48.184;11.510;2023-01-16T00:34:24;94734.59;;;-0.22;96.71
7662;BME280;30314;48.184;11.510;2023-01-16T00:36:51;94768.28;;;0.00;95.25
7662;BME280;30314;48.184;11.510;2023-01-16T00:39:35;94952.63;;;1.15;95.60
7662;BME280;30314;48.184;11.510;2023-01-16T00:42:04;94915.59;;;1.03;96.20
7662;BME280;30314;48.184;11.510;2023-01-16T00:44:32;94903.31;;;0.93;96.63
7662;BME280;30314;48.184;11.510;2023-01-16T00:47:01;94903.84;;;0.95;97.47
7662;BME280;30314;48.184;11.510;2023-01-16T00:49:29;94792.84;;;0.20;97.59
7662;BME280;30314;48.184;11.510;2023-01-16T00:51:57;94786.28;;;0.12;98.95
7662;BME280;30314;48.184;11.510;2023-01-16T00:54:25;94773.22;;;0.02;99.99
7662;BME280;30314;48.184;11.510;2023-01-16T00:56:54;94812.63;;;0.26;100.00
7662;BME280;30314;48.184;11.510;2023-01-16T00:59:22;94838.47;;;0.43;100.00
7662;BME280;30314;48.184;11.510;2023-01-16T01:01:49;94853.88;;;0.50;100.00
7662;BME280;30314;48.184;11.510;2023-01-16T01:04:17;94869.63;;;0.70;100.00
7662;BME280;30314;48.184;11.510;2023-01-16T01:06:45;94798.34;;;0.23;100.00
7662;BME280;30314;48.184;11.510;2023-01-16T01:09:13;94808.00;;;0.33;98.33
7662;BME280;30314;48.184;11.510;2023-01-16T01:11:40;94760.00;;;0.08;100.00
7662;BME280;30314;48.184;11.510;2023-01-16T01:14:10;94880.69;;;0.93;98.64
7662;BME280;30314;48.184;11.510;2023-01-16T01:16:37;94871.56;;;0.96;99.44
7662;BME280;30314;48.184;11.510;2023-01-16T01:19:06;94844.69;;;0.80;97.62
7662;BME280;30314;48.184;11.510;2023-01-16T01:21:34;94893.22;;;1.02;99.00
7662;BME280;30314;48.184;11.510;2023-01-16T01:24:04;94852.25;;;0.81;100.00
7662;BME280;30314;48.184;11.510;2023-01-16T01:26:32;94843.09;;;0.79;100.00
7662;BME280;30314;48.184;11.510;2023-01-16T01:29:03;94857.72;;;0.85;100.00
7662;BME280;30314;48.184;11.510;2023-01-16T01:31:32;94777.03;;;0.32;100.00
7662;BME280;30314;48.184;11.510;2023-01-16T01:34:00;94642.25;;;-0.78;100.00
7662;BME280;30314;48.184;11.510;2023-01-16T01:36:28;94798.53;;;0.17;100.00
7662;BME280;30314;48.184;11.510;2023-01-16T01:38:56;94711.50;;;-0.19;100.00
7662;BME280;30314;48.184;11.510;2023-01-16T01:41:24;94689.06;;;-0.35;100.00
7662;BME280;30314;48.184;11.510;2023-01-16T01:43:53;94652.06;;;-0.53;100.00
7662;BME280;30314;48.184;11.510;2023-01-16T01:46:25;94690.22;;;-0.53;100.00
7662;BME280;30314;48.184;11.510;2023-01-16T01:48:57;94672.47;;;-0.62;100.00
7662;BME280;30314;48.184;11.510;2023-01-16T01:51:30;94765.22;;;0.08;100.00
7662;BME280;30314;48.184;11.510;2023-01-16T01:54:03;94704.28;;;-0.11;100.00
7662;BME280;30314;48.184;11.510;2023-01-16T01:56:35;94830.59;;;0.70;100.00
7662;BME280;30314;48.184;11.510;2023-01-16T01:59:07;94713.19;;;0.03;100.00
7662;BME280;30314;48.184;11.510;2023-01-16T02:01:38;94804.53;;;0.60;100.00
7662;BME280;30314;48.184;11.510;2023-01-16T02:04:13;94800.13;;;0.61;100.00
7662;BME280;30314;48.184;11.510;2023-01-16T02:06:44;94787.03;;;0.50;100.00
7662;BME280;30314;48.184;11.510;2023-01-16T02:09:13;94770.94;;;0.53;100.00
7662;BME280;30314;48.184;11.510;2023-01-16T02:11:46;94769.38;;;0.52;100.00
7662;BME280;30314;48.184;11.510;2023-01-16T02:14:17;94770.69;;;0.55;100.00
7662;BME280;30314;48.184;11.510;2023-01-16T02:16:46;94764.38;;;0.40;100.00
7662;BME280;30314;48.184;11.510;2023-01-16T02:19:38;94757.81;;;0.33;100.00
7662;BME280;30314;48.184;11.510;2023-01-16T02:22:45;94751.84;;;0.32;100.00
7662;BME280;30314;48.184;11.510;2023-01-16T02:25:46;94750.06;;;0.38;100.00
7662;BME280;30314;48.184;11.510;2023-01-16T02:28:36;94737.34;;;0.41;100.00
7662;BME280;30314;48.184;11.510;2023-01-16T02:31:20;94728.66;;;0.25;100.00
7662;BME280;30314;48.184;11.510;2023-01-16T02:34:02;94724.84;;;0.44;100.00
7662;BME280;30314;48.184;11.510;2023-01-16T02:36:42;94730.28;;;0.37;100.00
7662;BME280;30314;48.184;11.510;2023-01-16T02:39:20;94724.56;;;0.40;100.00
7662;BME280;30314;48.184;11.510;2023-01-16T02:41:51;94722.78;;;0.40;100.00
7662;BME280;30314;48.184;11.510;2023-01-16T02:44:30;94724.00;;;0.33;100.00
7662;BME280;30314;48.184;11.510;2023-01-16T02:47:14;94708.75;;;0.52;100.00
7662;BME280;30314;48.184;11.510;2023-01-16T02:49:48;94696.25;;;0.49;100.00
7662;BME280;30314;48.184;11.510;2023-01-16T02:52:22;94699.66;;;0.49;100.00
7662;BME280;30314;48.184;11.510;2023-01-16T02:54:56;94693.66;;;0.49;100.00
7662;BME280;30314;48.184;11.510;2023-01-16T02:57:29;94686.88;;;0.43;100.00
7662;BME280;30314;48.184;11.510;2023-01-16T02:59:59;94679.09;;;0.43;100.00
7662;BME280;30314;48.184;11.510;2023-01-16T03:02:28;94684.06;;;0.60;100.00
7662;BME280;30314;48.184;11.510;2023-01-16T03:04:56;94678.84;;;0.54;100.00
7662;BME280;30314;48.184;11.510;2023-01-16T03:07:55;94682.75;;;0.52;100.00
7662;BME280;30314;48.184;11.510;2023-01-16T03:10:48;94669.44;;;0.38;100.00
7662;BME280;30314;48.184;11.510;2023-01-16T03:13:30;94660.31;;;0.35;100.00
7662;BME280;30314;48.184;11.510;2023-01-16T03:16:07;94656.16;;;0.29;100.00
7662;BME280;30314;48.184;11.510;2023-01-16T03:18:48;94650.13;;;0.23;100.00
7662;BME280;30314;48.184;11.510;2023-01-16T03:21:23;94635.53;;;0.17;100.00
7662;BME280;30314;48.184;11.510;2023-01-16T03:23:54;94637.88;;;0.13;100.00
7662;BME280;30314;48.184;11.510;2023-01-16T03:26:27;94635.00;;;0.10;100.00
7662;BME280;30314;48.184;11.510;2023-01-16T03:29:02;94622.47;;;0.02;100.00
7662;BME280;30314;48.184;11.510;2023-01-16T03:31:40;94620.41;;;0.04;100.00
7662;BME280;30314;48.184;11.510;2023-01-16T03:34:16;94623.59;;;0.16;100.00
7662;BME280;30314;48.184;11.510;2023-01-16T03:36:51;94608.22;;;0.04;100.00
7662;BME280;30314;48.184;11.510;2023-01-16T03:39:24;94605.44;;;0.21;100.00
7662;BME280;30314;48.184;11.510;2023-01-16T03:41:55;94595.88;;;0.43;100.00
7662;BME280;30314;48.184;11.510;2023-01-16T03:44:28;94588.31;;;0.41;100.00
7662;BME280;30314;48.184;11.510;2023-01-16T03:46:59;94600.06;;;0.54;100.00
7662;BME280;30314;48.184;11.510;2023-01-16T03:49:32;94582.38;;;0.56;100.00
7662;BME280;30314;48.184;11.510;2023-01-16T03:52:03;94575.59;;;0.60;99.58
7662;BME280;30314;48.184;11.510;2023-01-16T03:54:36;94571.72;;;0.63;98.86
7662;BME280;30314;48.184;11.510;2023-01-16T03:57:08;94565.72;;;0.57;100.00
7662;BME280;30314;48.184;11.510;2023-01-16T03:59:38;94566.72;;;0.51;100.00
7662;BME280;30314;48.184;11.510;2023-01-16T04:02:11;94557.13;;;0.51;100.00
7662;BME280;30314;48.184;11.510;2023-01-16T04:04:46;94552.19;;;0.60;100.00
7662;BME280;30314;48.184;11.510;2023-01-16T04:07:20;94545.44;;;0.54;100.00
7662;BME280;30314;48.184;11.510;2023-01-16T04:09:53;94536.84;;;0.53;100.00
7662;BME280;30314;48.184;11.510;2023-01-16T04:12:27;94537.09;;;0.52;100.00
7662;BME280;30314;48.184;11.510;2023-01-16T04:14:58;94529.78;;;0.33;100.00
7662;BME280;30314;48.184;11.510;2023-01-16T04:17:28;94523.75;;;0.12;100.00
7662;BME280;30314;48.184;11.510;2023-01-16T04:19:58;94493.53;;;-0.10;100.00
7662;BME280;30314;48.184;11.510;2023-01-16T04:22:27;94510.53;;;0.19;100.00
7662;BME280;30314;48.184;11.510;2023-01-16T04:24:57;94497.78;;;0.27;100.00
7662;BME280;30314;48.184;11.510;2023-01-16T04:27:25;94472.28;;;0.19;100.00
7662;BME280;30314;48.184;11.510;2023-01-16T04:29:52;94478.81;;;0.37;100.00
7662;BME280;30314;48.184;11.510;2023-01-16T04:32:20;94472.84;;;0.37;100.00
7662;BME280;30314;48.184;11.510;2023-01-16T04:34:48;94466.88;;;0.36;100.00
7662;BME280;30314;48.184;11.510;2023-01-16T04:37:17;94463.75;;;0.34;100.00
7662;BME280;30314;48.184;11.510;2023-01-16T04:39:45;94452.31;;;0.30;100.00
7662;BME280;30314;48.184;11.510;2023-01-16T04:42:14;94445.03;;;0.27;100.00
7662;BME280;30314;48.184;11.510;2023-01-16T04:44:42;94432.53;;;0.24;100.00
7662;BME280;30314;48.184;11.510;2023-01-16T04:47:09;94422.66;;;0.21;100.00
7662;BME280;30314;48.184;11.510;2023-01-16T04:49:37;94421.88;;;0.15;100.00
7662;BME280;30314;48.184;11.510;2023-01-16T04:52:05;94420.56;;;0.12;100.00
7662;BME280;30314;48.184;11.510;2023-01-16T04:54:34;94410.69;;;0.04;100.00
7662;BME280;30314;48.184;11.510;2023-01-16T04:57:02;94375.31;;;-0.28;100.00
7662;BME280;30314;48.184;11.510;2023-01-16T04:59:30;94412.25;;;0.00;100.00
7662;BME280;30314;48.184;11.510;2023-01-16T05:01:58;94411.47;;;-0.06;100.00
7662;BME280;30314;48.184;11.510;2023-01-16T05:04:25;94408.88;;;-0.01;100.00
7662;BME280;30314;48.184;11.510;2023-01-16T05:06:53;94397.44;;;0.01;100.00
7662;BME280;30314;48.184;11.510;2023-01-16T05:09:21;94392.75;;;0.03;100.00
7662;BME280;30314;48.184;11.510;2023-01-16T05:11:50;94359.47;;;-0.26;100.00
7662;BME280;30314;48.184;11.510;2023-01-16T05:14:17;94382.63;;;-0.04;100.00
7662;BME280;30314;48.184;11.510;2023-01-16T05:16:45;94381.84;;;-0.05;100.00
7662;BME280;30314;48.184;11.510;2023-01-16T05:19:12;94374.06;;;-0.05;100.00
7662;BME280;30314;48.184;11.510;2023-01-16T05:21:40;94367.56;;;-0.12;100.00
7662;BME280;30314;48.184;11.510;2023-01-16T05:24:08;94354.78;;;-0.24;100.00
7662;BME280;30314;48.184;11.510;2023-01-16T05:26:35;94356.63;;;-0.25;100.00
7662;BME280;30314;48.184;11.510;2023-01-16T05:29:04;94327.25;;;-0.41;100.00
7662;BME280;30314;48.184;11.510;2023-01-16T05:31:32;94358.44;;;-0.20;100.00
7662;BME280;30314;48.184;11.510;2023-01-16T05:34:00;94359.22;;;-0.20;100.00
7662;BME280;30314;48.184;11.510;2023-01-16T05:36:27;94353.25;;;-0.10;100.00
7662;BME280;30314;48.184;11.510;2023-01-16T05:38:55;94318.44;;;-0.24;100.00
7662;BME280;30314;48.184;11.510;2023-01-16T05:41:23;94329.88;;;-0.15;100.00
7662;BME280;30314;48.184;11.510;2023-01-16T05:43:50;94320.53;;;-0.16;100.00
7662;BME280;30314;48.184;11.510;2023-01-16T05:46:19;94317.66;;;-0.20;100.00
7662;BME280;30314;48.184;11.510;2023-01-16T05:48:47;94309.88;;;-0.20;100.00
7662;BME280;30314;48.184;11.510;2023-01-16T05:51:15;94311.16;;;-0.27;100.00
7662;BME280;30314;48.184;11.510;2023-01-16T05:53:43;94306.22;;;-0.34;100.00
7662;BME280;30314;48.184;11.510;2023-01-16T05:56:12;94302.31;;;-0.42;100.00
7662;BME280;30314;48.184;11.510;2023-01-16T05:58:40;94293.47;;;-0.20;100.00
7662;BME280;30314;48.184;11.510;2023-01-16T06:01:07;94292.47;;;-0.45;100.00
7662;BME280;30314;48.184;11.510;2023-01-16T06:03:36;94279.97;;;-0.48;100.00
7662;BME280;30314;48.184;11.510;2023-01-16T06:06:04;94274.28;;;-0.45;100.00
7662;BME280;30314;48.184;11.510;2023-01-16T06:08:32;94272.72;;;-0.41;100.00
7662;BME280;30314;48.184;11.510;2023-01-16T06:11:00;94269.31;;;-0.57;100.00
7662;BME280;30314;48.184;11.510;2023-01-16T06:13:27;94263.09;;;-0.56;100.00
7662;BME280;30314;48.184;11.510;2023-01-16T06:15:55;94257.66;;;-0.54;100.00
7662;BME280;30314;48.184;11.510;2023-01-16T06:18:23;94245.44;;;-0.44;100.00
7662;BME280;30314;48.184;11.510;2023-01-16T06:20:52;94235.81;;;-0.48;100.00
7662;BME280;30314;48.184;11.510;2023-01-16T06:23:19;94222.84;;;-0.53;100.00
7662;BME280;30314;48.184;11.510;2023-01-16T06:25:48;94214.28;;;-0.64;100.00
7662;BME280;30314;48.184;11.510;2023-01-16T06:28:16;94206.50;;;-0.75;100.00
7662;BME280;30314;48.184;11.510;2023-01-16T06:30:44;94205.97;;;-0.82;100.00
7662;BME280;30314;48.184;11.510;2023-01-16T06:33:11;94192.72;;;-0.96;100.00
7662;BME280;30314;48.184;11.510;2023-01-16T06:35:39;94197.66;;;-1.00;100.00
7662;BME280;30314;48.184;11.510;2023-01-16T06:38:08;94188.56;;;-1.07;100.00
7662;BME280;30314;48.184;11.510;2023-01-16T06:40:36;94188.00;;;-1.15;100.00
7662;BME280;30314;48.184;11.510;2023-01-16T06:43:03;94172.72;;;-1.11;100.00
7662;BME280;30314;48.184;11.510;2023-01-16T06:45:31;94168.03;;;-1.09;100.00
7662;BME280;30314;48.184;11.510;2023-01-16T06:47:59;94159.25;;;-1.03;100.00
7662;BME280;30314;48.184;11.510;2023-01-16T06:50:29;94148.63;;;-0.96;100.00
7662;BME280;30314;48.184;11.510;2023-01-16T06:52:57;94144.19;;;-0.85;100.00
7662;BME280;30314;48.184;11.510;2023-01-16T06:55:26;94136.94;;;-0.88;100.00
7662;BME280;30314;48.184;11.510;2023-01-16T06:57:53;94129.16;;;-0.88;100.00
7662;BME280;30314;48.184;11.510;2023-01-16T07:00:21;94122.94;;;-0.92;100.00
7662;BME280;30314;48.184;11.510;2023-01-16T07:02:51;94121.63;;;-0.95;100.00
7662;BME280;30314;48.184;11.510;2023-01-16T07:05:21;94113.84;;;-1.00;100.00
7662;BME280;30314;48.184;11.510;2023-01-16T07:07:49;94101.13;;;-0.96;100.00
7662;BME280;30314;48.184;11.510;2023-01-16T07:10:17;94052.91;;;-1.18;100.00
7662;BME280;30314;48.184;11.510;2023-01-16T07:12:48;94075.72;;;-1.00;100.00
7662;BME280;30314;48.184;11.510;2023-01-16T07:15:16;94071.53;;;-0.95;100.00
7662;BME280;30314;48.184;11.510;2023-01-16T07:18:01;94074.13;;;-0.95;100.00
7662;BME280;30314;48.184;11.510;2023-01-16T07:20:51;94071.56;;;-0.90;100.00
7662;BME280;30314;48.184;11.510;2023-01-16T07:23:38;94066.59;;;-0.87;100.00
7662;BME280;30314;48.184;11.510;2023-01-16T07:26:08;94064.00;;;-0.87;100.00
7662;BME280;30314;48.184;11.510;2023-01-16T07:28:38;94062.69;;;-0.68;100.00
7662;BME280;30314;48.184;11.510;2023-01-16T07:31:06;94048.16;;;-0.69;100.00
7662;BME280;30314;48.184;11.510;2023-01-16T07:33:35;94052.56;;;-0.65;100.00
7662;BME280;30314;48.184;11.510;2023-01-16T07:36:03;94046.06;;;-0.57;100.00
7662;BME280;30314;48.184;11.510;2023-01-16T07:38:30;94024.00;;;-0.65;100.00
7662;BME280;30314;48.184;11.510;2023-01-16T07:40:58;94024.28;;;-0.61;100.00
7662;BME280;30314;48.184;11.510;2023-01-16T07:43:26;94021.94;;;-0.58;100.00
7662;BME280;30314;48.184;11.510;2023-01-16T07:45:55;94003.75;;;-0.58;100.00
7662;BME280;30314;48.184;11.510;2023-01-16T07:48:23;93987.06;;;-0.41;100.00
7662;BME280;30314;48.184;11.510;2023-01-16T07:50:51;93998.41;;;-0.16;100.00
7662;BME280;30314;48.184;11.510;2023-01-16T07:53:22;93990.31;;;-0.15;100.00
7662;BME280;30314;48.184;11.510;2023-01-16T07:55:51;93987.19;;;-0.11;100.00
7662;BME280;30314;48.184;11.510;2023-01-16T07:58:19;93982.53;;;-0.15;100.00
7662;BME280;30314;48.184;11.510;2023-01-16T08:00:47;93978.88;;;-0.08;100.00
7662;BME280;30314;48.184;11.510;2023-01-16T08:03:17;93959.03;;;0.06;100.00
7662;BME280;30314;48.184;11.510;2023-01-16T08:05:44;93952.28;;;0.05;100.00
7662;BME280;30314;48.184;11.510;2023-01-16T08:08:13;93936.69;;;0.05;100.00
7662;BME280;30314;48.184;11.510;2023-01-16T08:10:40;93933.59;;;-0.02;100.00
7662;BME280;30314;48.184;11.510;2023-01-16T08:13:08;93939.69;;;0.23;100.00
7662;BME280;30314;48.184;11.510;2023-01-16T08:15:36;93932.81;;;0.37;100.00
7662;BME280;30314;48.184;11.510;2023-01-16T08:18:03;93933.88;;;0.36;100.00
7662;BME280;30314;48.184;11.510;2023-01-16T08:20:32;93930.06;;;0.53;100.00
7662;BME280;30314;48.184;11.510;2023-01-16T08:23:00;93930.31;;;0.56;100.00
7662;BME280;30314;48.184;11.510;2023-01-16T08:25:28;93928.00;;;0.55;100.00
7662;BME280;30314;48.184;11.510;2023-01-16T08:27:55;93906.31;;;0.35;100.00
7662;BME280;30314;48.184;11.510;2023-01-16T08:30:23;93897.84;;;0.54;100.00
7662;BME280;30314;48.184;11.510;2023-01-16T08:32:56;93873.81;;;0.38;100.00
7662;BME280;30314;48.184;11.510;2023-01-16T08:35:24;93871.94;;;0.68;100.00
7662;BME280;30314;48.184;11.510;2023-01-16T08:37:54;93891.63;;;0.79;100.00
7662;BME280;30314;48.184;11.510;2023-01-16T08:40:22;93881.94;;;0.85;100.00
7662;BME280;30314;48.184;11.510;2023-01-16T08:42:52;93874.88;;;0.86;100.00
7662;BME280;30314;48.184;11.510;2023-01-16T08:45:49;93870.03;;;1.03;100.00
7662;BME280;30314;48.184;11.510;2023-01-16T08:48:48;93860.28;;;1.33;100.00
7662;BME280;30314;48.184;11.510;2023-01-16T08:51:34;93843.81;;;1.38;99.79
7662;BME280;30314;48.184;11.510;2023-01-16T08:54:03;93833.75;;;1.31;100.00
7662;BME280;30314;48.184;11.510;2023-01-16T08:56:31;93823.22;;;1.42;100.00
7662;BME280;30314;48.184;11.510;2023-01-16T08:58:58;93827.00;;;1.49;98.40
7662;BME280;30314;48.184;11.510;2023-01-16T09:01:26;93821.72;;;1.54;98.79
7662;BME280;30314;48.184;11.510;2023-01-16T09:03:54;93806.44;;;1.67;98.78
7662;BME280;30314;48.184;11.510;2023-01-16T09:06:22;93728.47;;;1.37;95.68
7662;BME280;30314;48.184;11.510;2023-01-16T09:08:50;93796.59;;;1.97;97.22
7662;BME280;30314;48.184;11.510;2023-01-16T09:11:19;93787.22;;;1.96;94.17
7662;BME280;30314;48.184;11.510;2023-01-16T09:14:03;93782.25;;;2.14;93.09
7662;BME280;30314;48.184;11.510;2023-01-16T09:16:49;93785.63;;;2.14;95.22
7662;BME280;30314;48.184;11.510;2023-01-16T09:19:17;93777.53;;;2.30;93.87
7662;BME280;30314;48.184;11.510;2023-01-16T09:21:45;93715.31;;;1.95;91.82
7662;BME280;30314;48.184;11.510;2023-01-16T09:24:12;93770.50;;;2.30;93.96
7662;BME280;30314;48.184;11.510;2023-01-16T09:26:41;93757.28;;;2.41;91.99
7662;BME280;30314;48.184;11.510;2023-01-16T09:29:09;93671.00;;;1.95;90.27
7662;BME280;30314;48.184;11.510;2023-01-16T09:31:37;93751.06;;;2.36;93.42
7662;BME280;30314;48.184;11.510;2023-01-16T09:34:04;93741.50;;;2.32;93.13
7662;BME280;30314;48.184;11.510;2023-01-16T09:36:32;93709.34;;;2.08;91.75
7662;BME280;30314;48.184;11.510;2023-01-16T09:39:00;93715.41;;;2.04;94.16
7662;BME280;30314;48.184;11.510;2023-01-16T09:41:32;93733.69;;;2.18;92.29
7662;BME280;30314;48.184;11.510;2023-01-16T09:44:22;93722.66;;;2.21;94.87
7662;BME280;30314;48.184;11.510;2023-01-16T09:46:51;93721.16;;;2.34;94.43
7662;BME280;30314;48.184;11.510;2023-01-16T09:49:23;93718.72;;;2.23;92.97
7662;BME280;30314;48.184;11.510;2023-01-16T09:51:56;93706.34;;;2.29;92.44
7662;BME280;30314;48.184;11.510;2023-01-16T09:54:48;93613.75;;;1.62;93.59
7662;BME280;30314;48.184;11.510;2023-01-16T09:57:35;93681.13;;;2.10;94.62
7662;BME280;30314;48.184;11.510;2023-01-16T10:00:24;93678.03;;;2.36;92.61
7662;BME280;30314;48.184;11.510;2023-01-16T10:02:53;93656.97;;;2.47;90.85
7662;BME280;30314;48.184;11.510;2023-01-16T10:05:24;93620.78;;;2.17;89.46
7662;BME280;30314;48.184;11.510;2023-01-16T10:08:00;93645.31;;;2.30;92.46
7662;BME280;30314;48.184;11.510;2023-01-16T10:10:40;93628.88;;;2.30;93.49
7662;BME280;30314;48.184;11.510;2023-01-16T10:13:32;93620.25;;;2.57;90.88
7662;BME280;30314;48.184;11.510;2023-01-16T10:16:11;93601.31;;;2.65;91.98
7662;BME280;30314;48.184;11.510;2023-01-16T10:18:49;93600.75;;;2.77;89.54
7662;BME280;30314;48.184;11.510;2023-01-16T10:24:22;93566.91;;;2.86;87.13
7662;BME280;30314;48.184;11.510;2023-01-16T10:26:56;93526.84;;;2.91;86.03
7662;BME280;30314;48.184;11.510;2023-01-16T10:29:29;93562.22;;;3.60;85.82
7662;BME280;30314;48.184;11.510;2023-01-16T10:32:03;93563.19;;;3.73;81.63
7662;BME280;30314;48.184;11.510;2023-01-16T10:34:35;93549.50;;;3.76;79.11
7662;BME280;30314;48.184;11.510;2023-01-16T10:37:07;93544.47;;;3.89;78.35
7662;BME280;30314;48.184;11.510;2023-01-16T10:39:36;93539.72;;;3.91;79.15
7662;BME280;30314;48.184;11.510;2023-01-16T10:42:12;93514.63;;;3.81;79.72
7662;BME280;30314;48.184;11.510;2023-01-16T10:45:08;93516.19;;;4.17;78.20
7662;BME280;30314;48.184;11.510;2023-01-16T10:47:57;93504.22;;;4.43;77.17
7662;BME280;30314;48.184;11.510;2023-01-16T10:50:43;93504.84;;;4.57;78.07
7662;BME280;30314;48.184;11.510;2023-01-16T10:53:12;93499.72;;;4.78;72.25
7662;BME280;30314;48.184;11.510;2023-01-16T10:55:43;93503.56;;;4.63;71.84
7662;BME280;30314;48.184;11.510;2023-01-16T10:58:21;93492.66;;;4.61;68.03
7662;BME280;30314;48.184;11.510;2023-01-16T11:00:50;93489.00;;;4.36;70.81
7662;BME280;30314;48.184;11.510;2023-01-16T11:03:26;93460.97;;;4.01;71.70
7662;BME280;30314;48.184;11.510;2023-01-16T11:06:07;93470.19;;;4.16;72.62
7662;BME280;30314;48.184;11.510;2023-01-16T11:08:35;93469.28;;;4.30;75.00
7662;BME280;30314;48.184;11.510;2023-01-16T11:11:04;93449.56;;;4.59;69.32
7662;BME280;30314;48.184;11.510;2023-01-16T11:13:52;93462.41;;;4.90;69.42
7662;BME280;30314;48.184;11.510;2023-01-16T11:16:37;93459.41;;;5.18;69.15
7662;BME280;30314;48.184;11.510;2023-01-16T11:19:25;93447.19;;;5.31;65.04
7662;BME280;30314;48.184;11.510;2023-01-16T11:21:56;93432.25;;;5.32;62.33
7662;BME280;30314;48.184;11.510;2023-01-16T11:24:30;93430.59;;;5.48;66.77
7662;BME280;30314;48.184;11.510;2023-01-16T11:27:00;93404.41;;;5.48;61.49
7662;BME280;30314;48.184;11.510;2023-01-16T11:29:37;93408.78;;;5.35;60.68
7662;BME280;30314;48.184;11.510;2023-01-16T11:32:06;93386.72;;;5.36;66.47
7662;BME280;30314;48.184;11.510;2023-01-16T11:34:39;93386.94;;;5.53;60.97
7662;BME280;30314;48.184;11.510;2023-01-16T11:37:13;93384.47;;;5.77;60.81
7662;BME280;30314;48.184;11.510;2023-01-16T11:39:46;93375.78;;;5.86;60.71
7662;BME280;30314;48.184;11.510;2023-01-16T11:42:15;93375.00;;;5.85;60.18
7662;BME280;30314;48.184;11.510;2023-01-16T11:44:59;93367.13;;;5.64;58.91
7662;BME280;30314;48.184;11.510;2023-01-16T11:47:51;93335.31;;;5.32;59.79
7662;BME280;30314;48.184;11.510;2023-01-16T11:50:25;93332.53;;;5.28;60.61
7662;BME280;30314;48.184;11.510;2023-01-16T11:52:53;93318.94;;;5.35;60.29
7662;BME280;30314;48.184;11.510;2023-01-16T11:55:24;93308.63;;;5.30;62.54
7662;BME280;30314;48.184;11.510;2023-01-16T11:57:56;93317.56;;;5.29;63.44
7662;BME280;30314;48.184;11.510;2023-01-16T12:00:45;93313.25;;;5.33;61.33
7662;BME280;30314;48.184;11.510;2023-01-16T12:03:44;93311.72;;;5.32;62.89
7662;BME280;30314;48.184;11.510;2023-01-16T12:06:25;93309.72;;;5.50;59.73
7662;BME280;30314;48.184;11.510;2023-01-16T12:09:18;93299.72;;;5.31;60.48
7662;BME280;30314;48.184;11.510;2023-01-16T12:12:21;93293.47;;;5.14;60.75
7662;BME280;30314;48.184;11.510;2023-01-16T12:15:15;93282.97;;;4.93;62.56
7662;BME280;30314;48.184;11.510;2023-01-16T12:18:00;93296.69;;;4.90;62.00
7662;BME280;30314;48.184;11.510;2023-01-16T12:20:42;93302.34;;;5.01;61.07
7662;BME280;30314;48.184;11.510;2023-01-16T12:23:30;93295.66;;;4.82;61.33
7662;BME280;30314;48.184;11.510;2023-01-16T12:26:07;93295.22;;;4.80;62.53
7662;BME280;30314;48.184;11.510;2023-01-16T12:28:50;93288.34;;;4.67;63.45
7662;BME280;30314;48.184;11.510;2023-01-16T12:31:27;93282.63;;;4.73;63.83
7662;BME280;30314;48.184;11.510;2023-01-16T12:34:13;93274.19;;;4.68;67.75
7662;BME280;30314;48.184;11.510;2023-01-16T12:36:55;93288.16;;;4.72;67.17
7662;BME280;30314;48.184;11.510;2023-01-16T12:39:34;93271.72;;;4.71;65.43
7662;BME280;30314;48.184;11.510;2023-01-16T12:42:15;93277.97;;;4.79;65.48
7662;BME280;30314;48.184;11.510;2023-01-16T12:45:15;93242.25;;;4.44;65.62
7662;BME280;30314;48.184;11.510;2023-01-16T12:47:58;93263.13;;;4.62;66.00
7662;BME280;30314;48.184;11.510;2023-01-16T12:50:39;93272.81;;;4.61;65.38
7662;BME280;30314;48.184;11.510;2023-01-16T12:53:28;93268.16;;;4.37;68.94
7662;BME280;30314;48.184;11.510;2023-01-16T12:56:17;93267.66;;;4.44;70.36
7662;BME280;30314;48.184;11.510;2023-01-16T12:58:52;93253.41;;;4.32;70.07
7662;BME280;30314;48.184;11.510;2023-01-16T13:01:23;93262.91;;;4.37;70.45
7662;BME280;30314;48.184;11.510;2023-01-16T13:03:54;93246.34;;;4.24;71.63
7662;BME280;30314;48.184;11.510;2023-01-16T13:06:34;93265.84;;;4.35;72.82
7662;BME280;30314;48.184;11.510;2023-01-16T13:09:02;93263.28;;;4.18;74.68
7662;BME280;30314;48.184;11.510;2023-01-16T13:11:49;93275.78;;;4.51;69.75
7662;BME280;30314;48.184;11.510;2023-01-16T13:14:37;93296.56;;;4.56;69.64
7662;BME280;30314;48.184;11.510;2023-01-16T13:17:08;93307.19;;;4.51;75.42
7662;BME280;30314;48.184;11.510;2023-01-16T13:19:55;93300.59;;;4.45;75.79
7662;BME280;30314;48.184;11.510;2023-01-16T13:22:25;93300.50;;;4.62;75.01
7662;BME280;30314;48.184;11.510;2023-01-16T13:24:57;93295.19;;;4.50;77.73
7662;BME280;30314;48.184;11.510;2023-01-16T13:27:37;93302.44;;;4.44;78.51
7662;BME280;30314;48.184;11.510;2023-01-16T13:30:09;93311.50;;;4.47;76.84
7662;BME280;30314;48.184;11.510;2023-01-16T13:32:42;93299.69;;;4.41;77.80
7662;BME280;30314;48.184;11.510;2023-01-16T13:35:15;93291.56;;;4.33;77.89
7662;BME280;30314;48.184;11.510;2023-01-16T13:38:15;93295.44;;;4.27;82.22